sensor_id;sensor_type;location;lat;lon;timestamp;P1;P2;P0
68713;PMS7003;55690;51.566;19.198;2022-09-09T00:07:50;14;10;7
68713;PMS7003;55690;51.566;19.198;2022-09-09T00:16:11;13;10;8
68713;PMS7003;55690;51.566;19.198;2022-09-09T00:28:41;17;11;8
68713;PMS7003;55690;51.566;19.198;2022-09-09T00:32:58;8;8;7
68713;PMS7003;55690;51.566;19.198;2022-09-09T00:37:03;12;9;8
68713;PMS7003;55690;51.566;19.198;2022-09-09T00:41:08;12;10;9
68713;PMS7003;55690;51.566;19.198;2022-09-09T00:49:42;9;9;7
68713;PMS7003;55690;51.566;19.198;2022-09-09T00:57:57;25;13;12
68713;PMS7003;55690;51.566;19.198;2022-09-09T01:01:59;16;13;10
68713;PMS7003;55690;51.566;19.198;2022-09-09T01:06:11;15;11;10
68713;PMS7003;55690;51.566;19.198;2022-09-09T01:27:17;9;9;7
68713;PMS7003;55690;51.566;19.198;2022-09-09T01:31:37;15;12;9
68713;PMS7003;55690;51.566;19.198;2022-09-09T01:48:31;14;12;9
68713;PMS7003;55690;51.566;19.198;2022-09-09T01:52:36;13;11;8
68713;PMS7003;55690;51.566;19.198;2022-09-09T02:00:52;20;13;10
68713;PMS7003;55690;51.566;19.198;2022-09-09T02:05:03;10;10;8
68713;PMS7003;55690;51.566;19.198;2022-09-09T02:09:12;16;13;10
68713;PMS7003;55690;51.566;19.198;2022-09-09T02:13:20;13;11;9
68713;PMS7003;55690;51.566;19.198;2022-09-09T02:29:52;9;9;8
68713;PMS7003;55690;51.566;19.198;2022-09-09T02:33:58;4;3;1
68713;PMS7003;55690;51.566;19.198;2022-09-09T02:38:03;14;12;7
68713;PMS7003;55690;51.566;19.198;2022-09-09T02:42:10;16;14;12
68713;PMS7003;55690;51.566;19.198;2022-09-09T02:50:20;13;8;7
68713;PMS7003;55690;51.566;19.198;2022-09-09T02:58:45;13;12;8
68713;PMS7003;55690;51.566;19.198;2022-09-09T03:02:48;11;9;6
68713;PMS7003;55690;51.566;19.198;2022-09-09T03:11:02;13;13;11
68713;PMS7003;55690;51.566;19.198;2022-09-09T03:15:10;19;12;10
68713;PMS7003;55690;51.566;19.198;2022-09-09T03:23:19;14;12;9
68713;PMS7003;55690;51.566;19.198;2022-09-09T03:31:36;22;21;13
68713;PMS7003;55690;51.566;19.198;2022-09-09T03:35:38;23;23;12
68713;PMS7003;55690;51.566;19.198;2022-09-09T03:39:40;23;14;10
68713;PMS7003;55690;51.566;19.198;2022-09-09T03:43:42;26;16;14
68713;PMS7003;55690;51.566;19.198;2022-09-09T03:47:48;15;13;10
68713;PMS7003;55690;51.566;19.198;2022-09-09T03:51:50;14;11;9
68713;PMS7003;55690;51.566;19.198;2022-09-09T03:55:52;15;13;9
68713;PMS7003;55690;51.566;19.198;2022-09-09T03:59:55;16;13;10
68713;PMS7003;55690;51.566;19.198;2022-09-09T04:04:02;18;13;11
68713;PMS7003;55690;51.566;19.198;2022-09-09T04:08:21;14;13;8
68713;PMS7003;55690;51.566;19.198;2022-09-09T04:12:31;20;13;10
68713;PMS7003;55690;51.566;19.198;2022-09-09T04:20:49;14;12;8
68713;PMS7003;55690;51.566;19.198;2022-09-09T04:28:58;14;13;11
68713;PMS7003;55690;51.566;19.198;2022-09-09T04:33:03;17;12;10
68713;PMS7003;55690;51.566;19.198;2022-09-09T04:37:05;29;18;12
68713;PMS7003;55690;51.566;19.198;2022-09-09T04:41:07;17;12;8
68713;PMS7003;55690;51.566;19.198;2022-09-09T04:45:11;15;12;9
68713;PMS7003;55690;51.566;19.198;2022-09-09T04:49:14;20;13;11
68713;PMS7003;55690;51.566;19.198;2022-09-09T04:53:31;12;8;6
68713;PMS7003;55690;51.566;19.198;2022-09-09T04:57:35;29;14;10
68713;PMS7003;55690;51.566;19.198;2022-09-09T05:01:40;16;13;8
68713;PMS7003;55690;51.566;19.198;2022-09-09T05:05:42;21;14;11
68713;PMS7003;55690;51.566;19.198;2022-09-09T05:09:44;15;13;9
68713;PMS7003;55690;51.566;19.198;2022-09-09T05:13:53;12;8;6
68713;PMS7003;55690;51.566;19.198;2022-09-09T05:18:20;14;9;7
68713;PMS7003;55690;51.566;19.198;2022-09-09T05:22:23;13;11;10
68713;PMS7003;55690;51.566;19.198;2022-09-09T05:26:28;20;9;5
68713;PMS7003;55690;51.566;19.198;2022-09-09T05:30:34;13;13;9
68713;PMS7003;55690;51.566;19.198;2022-09-09T05:42:59;19;13;8
68713;PMS7003;55690;51.566;19.198;2022-09-09T05:47:02;16;15;11
68713;PMS7003;55690;51.566;19.198;2022-09-09T05:55:08;15;12;9
68713;PMS7003;55690;51.566;19.198;2022-09-09T05:59:13;17;10;8
68713;PMS7003;55690;51.566;19.198;2022-09-09T06:07:20;12;9;8
68713;PMS7003;55690;51.566;19.198;2022-09-09T06:11:22;13;13;10
68713;PMS7003;55690;51.566;19.198;2022-09-09T06:15:51;10;10;7
68713;PMS7003;55690;51.566;19.198;2022-09-09T06:19:53;18;11;9
68713;PMS7003;55690;51.566;19.198;2022-09-09T06:24:03;13;11;7
68713;PMS7003;55690;51.566;19.198;2022-09-09T06:28:05;18;12;9
68713;PMS7003;55690;51.566;19.198;2022-09-09T06:32:07;13;8;7
68713;PMS7003;55690;51.566;19.198;2022-09-09T06:36:14;12;8;7
68713;PMS7003;55690;51.566;19.198;2022-09-09T06:40:18;15;10;9
68713;PMS7003;55690;51.566;19.198;2022-09-09T06:44:20;9;7;5
68713;PMS7003;55690;51.566;19.198;2022-09-09T07:08:58;25;16;9
68713;PMS7003;55690;51.566;19.198;2022-09-09T07:17:08;17;10;8
68713;PMS7003;55690;51.566;19.198;2022-09-09T07:21:14;9;9;7
68713;PMS7003;55690;51.566;19.198;2022-09-09T07:25:17;14;7;5
68713;PMS7003;55690;51.566;19.198;2022-09-09T07:29:21;9;9;6
68713;PMS7003;55690;51.566;19.198;2022-09-09T07:33:43;5;5;5
68713;PMS7003;55690;51.566;19.198;2022-09-09T07:37:45;18;11;7
68713;PMS7003;55690;51.566;19.198;2022-09-09T07:41:49;15;15;10
68713;PMS7003;55690;51.566;19.198;2022-09-09T07:45:57;15;15;9
68713;PMS7003;55690;51.566;19.198;2022-09-09T07:50:19;16;16;12
68713;PMS7003;55690;51.566;19.198;2022-09-09T07:54:30;13;11;10
68713;PMS7003;55690;51.566;19.198;2022-09-09T07:58:33;16;12;9
68713;PMS7003;55690;51.566;19.198;2022-09-09T08:02:35;14;13;9
68713;PMS7003;55690;51.566;19.198;2022-09-09T08:06:38;14;14;13
68713;PMS7003;55690;51.566;19.198;2022-09-09T08:14:48;11;10;9
68713;PMS7003;55690;51.566;19.198;2022-09-09T08:23:10;20;14;8
68713;PMS7003;55690;51.566;19.198;2022-09-09T08:31:38;12;12;8
68713;PMS7003;55690;51.566;19.198;2022-09-09T08:48:12;13;8;7
68713;PMS7003;55690;51.566;19.198;2022-09-09T09:09:11;4;4;4
68713;PMS7003;55690;51.566;19.198;2022-09-09T09:13:26;6;6;5
68713;PMS7003;55690;51.566;19.198;2022-09-09T09:17:37;14;7;5
68713;PMS7003;55690;51.566;19.198;2022-09-09T09:21:41;9;6;5
68713;PMS7003;55690;51.566;19.198;2022-09-09T09:25:45;5;4;3
68713;PMS7003;55690;51.566;19.198;2022-09-09T09:29:46;7;7;5
68713;PMS7003;55690;51.566;19.198;2022-09-09T09:33:53;7;5;5
68713;PMS7003;55690;51.566;19.198;2022-09-09T09:38:00;2;2;1
68713;PMS7003;55690;51.566;19.198;2022-09-09T09:42:11;6;6;4
68713;PMS7003;55690;51.566;19.198;2022-09-09T09:46:19;7;4;4
68713;PMS7003;55690;51.566;19.198;2022-09-09T09:50:26;4;4;3
68713;PMS7003;55690;51.566;19.198;2022-09-09T09:54:29;5;5;5
68713;PMS7003;55690;51.566;19.198;2022-09-09T10:02:51;4;4;3
68713;PMS7003;55690;51.566;19.198;2022-09-09T10:07:20;5;5;4
68713;PMS7003;55690;51.566;19.198;2022-09-09T10:11:42;4;4;4
68713;PMS7003;55690;51.566;19.198;2022-09-09T10:16:06;9;6;4
68713;PMS7003;55690;51.566;19.198;2022-09-09T10:36:58;3;3;3
68713;PMS7003;55690;51.566;19.198;2022-09-09T10:57:47;3;3;3
68713;PMS7003;55690;51.566;19.198;2022-09-09T11:01:44;2;2;1
68713;PMS7003;55690;51.566;19.198;2022-09-09T11:18:21;3;3;3
68713;PMS7003;55690;51.566;19.198;2022-09-09T11:26:31;2;2;2
68713;PMS7003;55690;51.566;19.198;2022-09-09T11:43:37;2;2;1
68713;PMS7003;55690;51.566;19.198;2022-09-09T11:47:50;1;1;1
68713;PMS7003;55690;51.566;19.198;2022-09-09T11:51:54;3;3;3
68713;PMS7003;55690;51.566;19.198;2022-09-09T11:56:25;3;3;3
68713;PMS7003;55690;51.566;19.198;2022-09-09T12:04:37;2;2;2
68713;PMS7003;55690;51.566;19.198;2022-09-09T12:16:53;2;2;2
68713;PMS7003;55690;51.566;19.198;2022-09-09T12:20:57;3;3;3
68713;PMS7003;55690;51.566;19.198;2022-09-09T12:33:37;1;1;1
68713;PMS7003;55690;51.566;19.198;2022-09-09T12:37:50;2;2;2
68713;PMS7003;55690;51.566;19.198;2022-09-09T12:41:58;3;3;3
68713;PMS7003;55690;51.566;19.198;2022-09-09T12:46:22;2;2;2
68713;PMS7003;55690;51.566;19.198;2022-09-09T12:50:33;3;3;3
68713;PMS7003;55690;51.566;19.198;2022-09-09T12:54:38;4;4;3
68713;PMS7003;55690;51.566;19.198;2022-09-09T13:02:55;2;2;2
68713;PMS7003;55690;51.566;19.198;2022-09-09T13:07:07;2;2;1
68713;PMS7003;55690;51.566;19.198;2022-09-09T13:15:26;3;3;3
68713;PMS7003;55690;51.566;19.198;2022-09-09T13:19:35;10;3;3
68713;PMS7003;55690;51.566;19.198;2022-09-09T13:23:39;2;2;2
68713;PMS7003;55690;51.566;19.198;2022-09-09T13:32:17;2;2;2
68713;PMS7003;55690;51.566;19.198;2022-09-09T13:48:58;5;3;2
68713;PMS7003;55690;51.566;19.198;2022-09-09T13:53:02;6;6;4
68713;PMS7003;55690;51.566;19.198;2022-09-09T13:57:05;4;4;4
68713;PMS7003;55690;51.566;19.198;2022-09-09T14:01:12;7;7;6
68713;PMS7003;55690;51.566;19.198;2022-09-09T14:05:16;5;5;5
68713;PMS7003;55690;51.566;19.198;2022-09-09T14:09:21;1;1;1
68713;PMS7003;55690;51.566;19.198;2022-09-09T14:13:28;4;3;3
68713;PMS7003;55690;51.566;19.198;2022-09-09T14:17:34;2;2;2
68713;PMS7003;55690;51.566;19.198;2022-09-09T14:21:40;2;2;2
68713;PMS7003;55690;51.566;19.198;2022-09-09T14:25:46;2;2;1
68713;PMS7003;55690;51.566;19.198;2022-09-09T14:29:52;3;3;3
68713;PMS7003;55690;51.566;19.198;2022-09-09T14:33:58;0;0;0
68713;PMS7003;55690;51.566;19.198;2022-09-09T14:38:05;1;1;1
68713;PMS7003;55690;51.566;19.198;2022-09-09T14:42:11;3;3;2
68713;PMS7003;55690;51.566;19.198;2022-09-09T14:46:18;2;2;2
68713;PMS7003;55690;51.566;19.198;2022-09-09T14:50:23;4;4;4
68713;PMS7003;55690;51.566;19.198;2022-09-09T14:54:29;2;2;2
68713;PMS7003;55690;51.566;19.198;2022-09-09T14:58:36;3;3;2
68713;PMS7003;55690;51.566;19.198;2022-09-09T15:02:41;4;4;3
68713;PMS7003;55690;51.566;19.198;2022-09-09T15:06:48;2;1;1
68713;PMS7003;55690;51.566;19.198;2022-09-09T15:19:07;2;2;1
68713;PMS7003;55690;51.566;19.198;2022-09-09T15:23:13;3;3;3
68713;PMS7003;55690;51.566;19.198;2022-09-09T15:27:18;4;4;4
68713;PMS7003;55690;51.566;19.198;2022-09-09T15:31:29;3;3;3
68713;PMS7003;55690;51.566;19.198;2022-09-09T15:43:48;6;3;3
68713;PMS7003;55690;51.566;19.198;2022-09-09T15:47:52;3;3;3
68713;PMS7003;55690;51.566;19.198;2022-09-09T15:56:03;2;2;2
68713;PMS7003;55690;51.566;19.198;2022-09-09T16:00:08;3;3;3
68713;PMS7003;55690;51.566;19.198;2022-09-09T16:04:14;1;1;1
68713;PMS7003;55690;51.566;19.198;2022-09-09T16:08:23;3;3;2
68713;PMS7003;55690;51.566;19.198;2022-09-09T16:12:26;6;2;2
68713;PMS7003;55690;51.566;19.198;2022-09-09T16:16:32;6;3;2
68713;PMS7003;55690;51.566;19.198;2022-09-09T16:20:39;3;3;3
68713;PMS7003;55690;51.566;19.198;2022-09-09T16:24:45;1;1;1
68713;PMS7003;55690;51.566;19.198;2022-09-09T16:28:51;9;6;5
68713;PMS7003;55690;51.566;19.198;2022-09-09T16:32:57;4;4;3
68713;PMS7003;55690;51.566;19.198;2022-09-09T16:41:10;12;9;7
68713;PMS7003;55690;51.566;19.198;2022-09-09T16:45:15;13;13;11
68713;PMS7003;55690;51.566;19.198;2022-09-09T16:57:34;8;8;6
68713;PMS7003;55690;51.566;19.198;2022-09-09T17:05:46;5;5;5
68713;PMS7003;55690;51.566;19.198;2022-09-09T17:09:56;6;5;4
68713;PMS7003;55690;51.566;19.198;2022-09-09T17:13:59;5;5;3
68713;PMS7003;55690;51.566;19.198;2022-09-09T17:18:05;6;6;6
68713;PMS7003;55690;51.566;19.198;2022-09-09T17:22:11;7;6;6
68713;PMS7003;55690;51.566;19.198;2022-09-09T17:26:18;8;6;5
68713;PMS7003;55690;51.566;19.198;2022-09-09T17:30:23;11;7;6
68713;PMS7003;55690;51.566;19.198;2022-09-09T17:34:30;5;5;4
68713;PMS7003;55690;51.566;19.198;2022-09-09T17:38:36;10;9;8
68713;PMS7003;55690;51.566;19.198;2022-09-09T17:42:42;8;8;8
68713;PMS7003;55690;51.566;19.198;2022-09-09T17:46:48;13;10;10
68713;PMS7003;55690;51.566;19.198;2022-09-09T17:50:57;13;13;12
68713;PMS7003;55690;51.566;19.198;2022-09-09T17:55:00;14;14;12
68713;PMS7003;55690;51.566;19.198;2022-09-09T17:59:07;15;11;9
68713;PMS7003;55690;51.566;19.198;2022-09-09T18:03:13;13;11;8
68713;PMS7003;55690;51.566;19.198;2022-09-09T18:07:19;9;8;7
68713;PMS7003;55690;51.566;19.198;2022-09-09T18:11:26;16;13;12
68713;PMS7003;55690;51.566;19.198;2022-09-09T18:15:35;15;11;9
68713;PMS7003;55690;51.566;19.198;2022-09-09T18:19:37;16;14;12
68713;PMS7003;55690;51.566;19.198;2022-09-09T18:23:44;12;11;8
68713;PMS7003;55690;51.566;19.198;2022-09-09T18:27:55;14;12;9
68713;PMS7003;55690;51.566;19.198;2022-09-09T18:36:08;21;20;13
68713;PMS7003;55690;51.566;19.198;2022-09-09T18:40:16;15;12;11
68713;PMS7003;55690;51.566;19.198;2022-09-09T18:44:20;12;12;9
68713;PMS7003;55690;51.566;19.198;2022-09-09T18:48:25;17;14;11
68713;PMS7003;55690;51.566;19.198;2022-09-09T18:52:28;11;11;9
68713;PMS7003;55690;51.566;19.198;2022-09-09T19:00:39;13;11;10
68713;PMS7003;55690;51.566;19.198;2022-09-09T19:04:45;14;13;13
68713;PMS7003;55690;51.566;19.198;2022-09-09T19:17:03;15;12;9
68713;PMS7003;55690;51.566;19.198;2022-09-09T19:25:17;16;13;10
68713;PMS7003;55690;51.566;19.198;2022-09-09T19:29:23;16;13;11
68713;PMS7003;55690;51.566;19.198;2022-09-09T19:37:38;19;17;14
68713;PMS7003;55690;51.566;19.198;2022-09-09T19:54:06;18;13;10
68713;PMS7003;55690;51.566;19.198;2022-09-09T19:58:10;18;18;13
68713;PMS7003;55690;51.566;19.198;2022-09-09T20:02:14;13;13;12
68713;PMS7003;55690;51.566;19.198;2022-09-09T20:06:18;19;12;9
68713;PMS7003;55690;51.566;19.198;2022-09-09T20:10:24;11;11;9
68713;PMS7003;55690;51.566;19.198;2022-09-09T20:18:37;14;12;7
68713;PMS7003;55690;51.566;19.198;2022-09-09T20:22:42;19;16;10
68713;PMS7003;55690;51.566;19.198;2022-09-09T20:26:48;34;15;10
68713;PMS7003;55690;51.566;19.198;2022-09-09T20:35:06;14;11;9
68713;PMS7003;55690;51.566;19.198;2022-09-09T20:39:12;21;18;12
68713;PMS7003;55690;51.566;19.198;2022-09-09T20:43:20;20;19;11
68713;PMS7003;55690;51.566;19.198;2022-09-09T20:47:21;18;17;14
68713;PMS7003;55690;51.566;19.198;2022-09-09T20:51:26;14;12;9
68713;PMS7003;55690;51.566;19.198;2022-09-09T20:59:38;24;14;10
68713;PMS7003;55690;51.566;19.198;2022-09-09T21:03:44;21;13;12
68713;PMS7003;55690;51.566;19.198;2022-09-09T21:07:50;24;15;12
68713;PMS7003;55690;51.566;19.198;2022-09-09T21:16:09;15;15;11
68713;PMS7003;55690;51.566;19.198;2022-09-09T21:20:13;16;13;10
68713;PMS7003;55690;51.566;19.198;2022-09-09T21:24:16;27;20;14
68713;PMS7003;55690;51.566;19.198;2022-09-09T21:28:21;12;11;9
68713;PMS7003;55690;51.566;19.198;2022-09-09T21:32:27;17;14;10
68713;PMS7003;55690;51.566;19.198;2022-09-09T21:40:47;17;15;10
68713;PMS7003;55690;51.566;19.198;2022-09-09T21:44:50;21;14;10
68713;PMS7003;55690;51.566;19.198;2022-09-09T21:48:56;17;13;11
68713;PMS7003;55690;51.566;19.198;2022-09-09T21:52:58;13;12;8
68713;PMS7003;55690;51.566;19.198;2022-09-09T21:57:04;15;11;9
68713;PMS7003;55690;51.566;19.198;2022-09-09T22:01:11;18;13;10
68713;PMS7003;55690;51.566;19.198;2022-09-09T22:05:16;15;13;12
68713;PMS7003;55690;51.566;19.198;2022-09-09T22:09:22;19;10;7
68713;PMS7003;55690;51.566;19.198;2022-09-09T22:13:29;16;13;11
68713;PMS7003;55690;51.566;19.198;2022-09-09T22:17:37;32;13;10
68713;PMS7003;55690;51.566;19.198;2022-09-09T22:21:43;18;15;14
68713;PMS7003;55690;51.566;19.198;2022-09-09T22:25:49;25;16;10
68713;PMS7003;55690;51.566;19.198;2022-09-09T22:29:55;17;15;9
68713;PMS7003;55690;51.566;19.198;2022-09-09T22:34:02;17;13;11
68713;PMS7003;55690;51.566;19.198;2022-09-09T22:38:08;26;22;13
68713;PMS7003;55690;51.566;19.198;2022-09-09T22:42:14;18;18;12
68713;PMS7003;55690;51.566;19.198;2022-09-09T22:46:20;23;14;11
68713;PMS7003;55690;51.566;19.198;2022-09-09T22:50:26;23;19;15
68713;PMS7003;55690;51.566;19.198;2022-09-09T22:54:32;22;15;10
68713;PMS7003;55690;51.566;19.198;2022-09-09T22:58:43;32;24;14
68713;PMS7003;55690;51.566;19.198;2022-09-09T23:06:51;25;18;10
68713;PMS7003;55690;51.566;19.198;2022-09-09T23:10:58;20;14;8
68713;PMS7003;55690;51.566;19.198;2022-09-09T23:15:04;33;20;13
68713;PMS7003;55690;51.566;19.198;2022-09-09T23:19:16;23;22;12
68713;PMS7003;55690;51.566;19.198;2022-09-09T23:23:21;35;22;14
68713;PMS7003;55690;51.566;19.198;2022-09-09T23:27:33;27;22;16
68713;PMS7003;55690;51.566;19.198;2022-09-09T23:31:38;25;25;17
68713;PMS7003;55690;51.566;19.198;2022-09-09T23:35:41;26;20;11
68713;PMS7003;55690;51.566;19.198;2022-09-09T23:39:44;29;15;10
68713;PMS7003;55690;51.566;19.198;2022-09-09T23:43:47;23;19;12
68713;PMS7003;55690;51.566;19.198;2022-09-09T23:47:55;22;17;12
68713;PMS7003;55690;51.566;19.198;2022-09-09T23:52:07;24;18;13
